Terminal Aerodrome Forecast
Issued by NWS

Home | Current Version | Previous Version | Text Only | Print | Product List | Glossary On
Versions: 1 2 3 4 5 6 7 8 9 10 11 12 13 14 15 16 17 18 19 20 21 22 23 24 25 26 27 28 29 30 31 32 33 34 35 36
000
FTUS41 KBOX 052111 AAA
TAFACK
TAF AMD
KACK 052111Z 0521/0618 30011G18KT P6SM BKN025
     FM052200 27012G22KT P6SM SCT025
     FM060700 32016G27KT P6SM SKC
     FM061400 36013KT P6SM FEW250=

USA.gov is the U.S. government's official web portal to all federal, state and local government web resources and services.